Terminal Aerodrome Forecast
Issued by NWS

Home | Current Version | Previous Version | Text Only | Print | Product List | Glossary Off
Versions: 1 2 3 4 5 6 7 8 9 10 11 12 13 14 15 16 17 18 19

515
FTUS43 KIWX 211139
TAFSBN
TAF
KSBN 211139Z 2112/2212 16006KT 6SM BR BKN015
      TEMPO 2112/2115 2SM BR SCT015
     FM211600 18010KT P6SM SCT020 BKN150
     FM220200 19004KT 4SM BR SCT015 OVC060
     FM220800 VRB02KT 2SM BR OVC015
      TEMPO 2209/2212 1/2SM FG VV004=

USA.gov is the U.S. government's official web portal to all federal, state and local government web resources and services.